sensor_id;sensor_type;location;lat;lon;timestamp;P1;durP1;ratioP1;P2;durP2;ratioP2
80215;SDS011;69532;37.974;23.708;2024-02-28T00:01:24;14.88;;;6.28;;
80215;SDS011;69532;37.974;23.708;2024-02-28T00:03:50;16.13;;;7.00;;
80215;SDS011;69532;37.974;23.708;2024-02-28T00:06:17;14.60;;;6.25;;
80215;SDS011;69532;37.974;23.708;2024-02-28T00:08:43;14.20;;;6.60;;
80215;SDS011;69532;37.974;23.708;2024-02-28T00:11:09;16.63;;;6.38;;
80215;SDS011;69532;37.974;23.708;2024-02-28T00:13:36;17.85;;;7.03;;
80215;SDS011;69532;37.974;23.708;2024-02-28T00:16:02;16.58;;;7.25;;
80215;SDS011;69532;37.974;23.708;2024-02-28T00:18:29;11.57;;;6.40;;
80215;SDS011;69532;37.974;23.708;2024-02-28T00:20:57;19.77;;;7.10;;
80215;SDS011;69532;37.974;23.708;2024-02-28T00:23:24;15.05;;;6.93;;
80215;SDS011;69532;37.974;23.708;2024-02-28T00:25:50;18.88;;;7.63;;
80215;SDS011;69532;37.974;23.708;2024-02-28T00:28:16;14.45;;;6.90;;
80215;SDS011;69532;37.974;23.708;2024-02-28T00:30:43;18.88;;;7.30;;
80215;SDS011;69532;37.974;23.708;2024-02-28T00:33:09;15.95;;;7.22;;
80215;SDS011;69532;37.974;23.708;2024-02-28T00:35:35;16.13;;;7.03;;
80215;SDS011;69532;37.974;23.708;2024-02-28T00:38:01;16.42;;;7.32;;
80215;SDS011;69532;37.974;23.708;2024-02-28T00:40:28;14.40;;;7.53;;
80215;SDS011;69532;37.974;23.708;2024-02-28T00:42:54;18.50;;;7.43;;
80215;SDS011;69532;37.974;23.708;2024-02-28T00:45:20;20.85;;;7.22;;
80215;SDS011;69532;37.974;23.708;2024-02-28T00:47:47;18.50;;;7.07;;
80215;SDS011;69532;37.974;23.708;2024-02-28T00:50:13;19.13;;;7.78;;
80215;SDS011;69532;37.974;23.708;2024-02-28T00:52:39;17.85;;;7.40;;
80215;SDS011;69532;37.974;23.708;2024-02-28T00:55:06;17.15;;;8.07;;
80215;SDS011;69532;37.974;23.708;2024-02-28T00:57:33;16.25;;;8.20;;
80215;SDS011;69532;37.974;23.708;2024-02-28T00:59:59;19.60;;;8.27;;
80215;SDS011;69532;37.974;23.708;2024-02-28T01:02:25;18.75;;;8.48;;
80215;SDS011;69532;37.974;23.708;2024-02-28T01:04:51;22.45;;;8.88;;
80215;SDS011;69532;37.974;23.708;2024-02-28T01:07:17;19.83;;;9.35;;
80215;SDS011;69532;37.974;23.708;2024-02-28T01:09:44;19.60;;;8.13;;
80215;SDS011;69532;37.974;23.708;2024-02-28T01:12:10;17.98;;;8.05;;
80215;SDS011;69532;37.974;23.708;2024-02-28T01:14:36;16.80;;;8.15;;
80215;SDS011;69532;37.974;23.708;2024-02-28T01:17:02;19.77;;;7.97;;
80215;SDS011;69532;37.974;23.708;2024-02-28T01:19:28;17.13;;;8.02;;
80215;SDS011;69532;37.974;23.708;2024-02-28T01:21:55;17.45;;;8.10;;
80215;SDS011;69532;37.974;23.708;2024-02-28T01:24:21;19.17;;;8.35;;
80215;SDS011;69532;37.974;23.708;2024-02-28T01:26:48;20.70;;;7.82;;
80215;SDS011;69532;37.974;23.708;2024-02-28T01:29:14;18.88;;;7.90;;
80215;SDS011;69532;37.974;23.708;2024-02-28T01:31:40;14.77;;;7.28;;
80215;SDS011;69532;37.974;23.708;2024-02-28T01:34:06;22.55;;;8.45;;
80215;SDS011;69532;37.974;23.708;2024-02-28T01:36:33;17.00;;;7.05;;
80215;SDS011;69532;37.974;23.708;2024-02-28T01:39:00;19.38;;;7.30;;
80215;SDS011;69532;37.974;23.708;2024-02-28T01:41:26;16.80;;;7.30;;
80215;SDS011;69532;37.974;23.708;2024-02-28T01:43:52;20.98;;;8.00;;
80215;SDS011;69532;37.974;23.708;2024-02-28T01:46:23;18.17;;;7.50;;
80215;SDS011;69532;37.974;23.708;2024-02-28T01:48:52;16.02;;;7.38;;
80215;SDS011;69532;37.974;23.708;2024-02-28T01:51:19;15.45;;;6.80;;
80215;SDS011;69532;37.974;23.708;2024-02-28T01:53:47;19.45;;;7.78;;
80215;SDS011;69532;37.974;23.708;2024-02-28T01:56:14;18.60;;;7.32;;
80215;SDS011;69532;37.974;23.708;2024-02-28T01:58:42;18.73;;;6.53;;
80215;SDS011;69532;37.974;23.708;2024-02-28T02:01:11;16.50;;;7.35;;
80215;SDS011;69532;37.974;23.708;2024-02-28T02:03:39;14.82;;;7.05;;
80215;SDS011;69532;37.974;23.708;2024-02-28T02:06:05;16.80;;;7.68;;
80215;SDS011;69532;37.974;23.708;2024-02-28T02:08:31;17.20;;;7.03;;
80215;SDS011;69532;37.974;23.708;2024-02-28T02:10:59;21.10;;;7.25;;
80215;SDS011;69532;37.974;23.708;2024-02-28T02:13:25;21.27;;;8.07;;
80215;SDS011;69532;37.974;23.708;2024-02-28T02:15:51;18.88;;;6.55;;
80215;SDS011;69532;37.974;23.708;2024-02-28T02:18:17;17.35;;;6.95;;
80215;SDS011;69532;37.974;23.708;2024-02-28T02:20:44;16.13;;;7.22;;
80215;SDS011;69532;37.974;23.708;2024-02-28T02:23:16;16.73;;;7.35;;
80215;SDS011;69532;37.974;23.708;2024-02-28T02:25:45;17.88;;;7.45;;
80215;SDS011;69532;37.974;23.708;2024-02-28T02:28:14;19.40;;;7.15;;
80215;SDS011;69532;37.974;23.708;2024-02-28T02:30:41;15.93;;;7.18;;
80215;SDS011;69532;37.974;23.708;2024-02-28T02:33:08;14.93;;;6.63;;
80215;SDS011;69532;37.974;23.708;2024-02-28T02:35:34;16.35;;;6.65;;
80215;SDS011;69532;37.974;23.708;2024-02-28T02:38:00;23.15;;;8.82;;
80215;SDS011;69532;37.974;23.708;2024-02-28T02:40:26;20.13;;;6.88;;
80215;SDS011;69532;37.974;23.708;2024-02-28T02:42:52;18.25;;;7.07;;
80215;SDS011;69532;37.974;23.708;2024-02-28T02:45:19;15.98;;;6.90;;
80215;SDS011;69532;37.974;23.708;2024-02-28T02:47:45;17.33;;;7.00;;
80215;SDS011;69532;37.974;23.708;2024-02-28T02:50:11;16.65;;;7.30;;
80215;SDS011;69532;37.974;23.708;2024-02-28T02:52:37;19.23;;;7.35;;
80215;SDS011;69532;37.974;23.708;2024-02-28T02:55:04;15.93;;;7.07;;
80215;SDS011;69532;37.974;23.708;2024-02-28T02:57:31;16.33;;;7.55;;
80215;SDS011;69532;37.974;23.708;2024-02-28T02:59:58;16.80;;;7.60;;
80215;SDS011;69532;37.974;23.708;2024-02-28T03:02:24;16.25;;;6.78;;
80215;SDS011;69532;37.974;23.708;2024-02-28T03:04:50;17.50;;;7.78;;
80215;SDS011;69532;37.974;23.708;2024-02-28T03:07:17;20.55;;;7.90;;
80215;SDS011;69532;37.974;23.708;2024-02-28T03:09:43;18.10;;;7.60;;
80215;SDS011;69532;37.974;23.708;2024-02-28T03:12:10;17.73;;;7.35;;
80215;SDS011;69532;37.974;23.708;2024-02-28T03:14:36;18.55;;;7.35;;
80215;SDS011;69532;37.974;23.708;2024-02-28T03:17:03;19.98;;;8.80;;
80215;SDS011;69532;37.974;23.708;2024-02-28T03:19:29;16.73;;;8.48;;
80215;SDS011;69532;37.974;23.708;2024-02-28T03:21:55;21.83;;;8.68;;
80215;SDS011;69532;37.974;23.708;2024-02-28T03:24:21;20.67;;;8.43;;
80215;SDS011;69532;37.974;23.708;2024-02-28T03:26:47;21.35;;;7.93;;
80215;SDS011;69532;37.974;23.708;2024-02-28T03:29:13;18.20;;;7.80;;
80215;SDS011;69532;37.974;23.708;2024-02-28T03:31:40;18.67;;;7.90;;
80215;SDS011;69532;37.974;23.708;2024-02-28T03:34:06;24.08;;;7.07;;
80215;SDS011;69532;37.974;23.708;2024-02-28T03:36:32;21.63;;;9.10;;
80215;SDS011;69532;37.974;23.708;2024-02-28T03:38:58;17.35;;;7.75;;
80215;SDS011;69532;37.974;23.708;2024-02-28T03:41:24;22.75;;;8.07;;
80215;SDS011;69532;37.974;23.708;2024-02-28T03:43:50;18.23;;;7.78;;
80215;SDS011;69532;37.974;23.708;2024-02-28T03:46:16;20.27;;;8.05;;
80215;SDS011;69532;37.974;23.708;2024-02-28T03:48:43;20.83;;;9.10;;
80215;SDS011;69532;37.974;23.708;2024-02-28T03:51:09;20.63;;;8.32;;
80215;SDS011;69532;37.974;23.708;2024-02-28T03:53:35;21.63;;;8.55;;
80215;SDS011;69532;37.974;23.708;2024-02-28T03:56:01;18.05;;;8.10;;
80215;SDS011;69532;37.974;23.708;2024-02-28T03:58:28;19.00;;;7.25;;
80215;SDS011;69532;37.974;23.708;2024-02-28T04:00:54;18.65;;;7.18;;
80215;SDS011;69532;37.974;23.708;2024-02-28T04:03:20;19.92;;;7.45;;
80215;SDS011;69532;37.974;23.708;2024-02-28T04:05:47;19.13;;;8.52;;
80215;SDS011;69532;37.974;23.708;2024-02-28T04:08:13;20.88;;;9.00;;
80215;SDS011;69532;37.974;23.708;2024-02-28T04:10:39;18.92;;;8.20;;
80215;SDS011;69532;37.974;23.708;2024-02-28T04:13:05;23.23;;;8.77;;
80215;SDS011;69532;37.974;23.708;2024-02-28T04:15:32;17.80;;;7.28;;
80215;SDS011;69532;37.974;23.708;2024-02-28T04:17:58;22.40;;;8.68;;
80215;SDS011;69532;37.974;23.708;2024-02-28T04:20:24;22.05;;;8.27;;
80215;SDS011;69532;37.974;23.708;2024-02-28T04:22:51;27.10;;;10.10;;
80215;SDS011;69532;37.974;23.708;2024-02-28T04:25:17;20.27;;;9.07;;
80215;SDS011;69532;37.974;23.708;2024-02-28T04:27:43;21.17;;;8.15;;
80215;SDS011;69532;37.974;23.708;2024-02-28T04:30:09;17.98;;;9.02;;
80215;SDS011;69532;37.974;23.708;2024-02-28T04:32:36;17.83;;;8.85;;
80215;SDS011;69532;37.974;23.708;2024-02-28T04:35:03;22.67;;;9.20;;
80215;SDS011;69532;37.974;23.708;2024-02-28T04:37:29;24.23;;;8.68;;
80215;SDS011;69532;37.974;23.708;2024-02-28T04:39:56;20.13;;;9.00;;
80215;SDS011;69532;37.974;23.708;2024-02-28T04:42:22;23.27;;;9.20;;
80215;SDS011;69532;37.974;23.708;2024-02-28T04:44:48;22.55;;;8.30;;
80215;SDS011;69532;37.974;23.708;2024-02-28T04:47:14;29.58;;;11.85;;
80215;SDS011;69532;37.974;23.708;2024-02-28T04:49:40;26.23;;;11.30;;
80215;SDS011;69532;37.974;23.708;2024-02-28T04:52:06;21.80;;;11.13;;
80215;SDS011;69532;37.974;23.708;2024-02-28T04:54:32;24.25;;;11.52;;
80215;SDS011;69532;37.974;23.708;2024-02-28T04:56:59;24.23;;;10.75;;
80215;SDS011;69532;37.974;23.708;2024-02-28T04:59:25;26.60;;;13.15;;
80215;SDS011;69532;37.974;23.708;2024-02-28T05:01:51;27.27;;;13.70;;
80215;SDS011;69532;37.974;23.708;2024-02-28T05:04:17;27.73;;;14.57;;
80215;SDS011;69532;37.974;23.708;2024-02-28T05:06:44;25.92;;;14.13;;
80215;SDS011;69532;37.974;23.708;2024-02-28T05:09:10;36.17;;;16.35;;
80215;SDS011;69532;37.974;23.708;2024-02-28T05:11:36;31.08;;;16.20;;
80215;SDS011;69532;37.974;23.708;2024-02-28T05:14:03;32.70;;;17.15;;
80215;SDS011;69532;37.974;23.708;2024-02-28T05:16:29;33.75;;;18.00;;
80215;SDS011;69532;37.974;23.708;2024-02-28T05:18:55;32.95;;;16.73;;
80215;SDS011;69532;37.974;23.708;2024-02-28T05:21:21;34.75;;;18.02;;
80215;SDS011;69532;37.974;23.708;2024-02-28T05:23:48;31.48;;;17.25;;
80215;SDS011;69532;37.974;23.708;2024-02-28T05:26:14;31.25;;;15.80;;
80215;SDS011;69532;37.974;23.708;2024-02-28T05:28:40;33.25;;;16.48;;
80215;SDS011;69532;37.974;23.708;2024-02-28T05:31:22;30.23;;;16.15;;
80215;SDS011;69532;37.974;23.708;2024-02-28T05:33:54;36.63;;;18.25;;
80215;SDS011;69532;37.974;23.708;2024-02-28T05:36:22;34.03;;;18.73;;
80215;SDS011;69532;37.974;23.708;2024-02-28T05:38:49;35.58;;;19.10;;
80215;SDS011;69532;37.974;23.708;2024-02-28T05:41:16;35.20;;;19.50;;
80215;SDS011;69532;37.974;23.708;2024-02-28T05:43:46;32.95;;;18.30;;
80215;SDS011;69532;37.974;23.708;2024-02-28T05:46:12;37.17;;;19.42;;
80215;SDS011;69532;37.974;23.708;2024-02-28T05:48:43;37.72;;;20.38;;
80215;SDS011;69532;37.974;23.708;2024-02-28T05:51:12;33.38;;;18.35;;
80215;SDS011;69532;37.974;23.708;2024-02-28T05:53:39;33.63;;;19.80;;
80215;SDS011;69532;37.974;23.708;2024-02-28T05:56:06;33.78;;;19.77;;
80215;SDS011;69532;37.974;23.708;2024-02-28T05:58:40;32.00;;;19.20;;
80215;SDS011;69532;37.974;23.708;2024-02-28T06:01:06;39.90;;;20.08;;
80215;SDS011;69532;37.974;23.708;2024-02-28T06:03:38;33.95;;;20.15;;
80215;SDS011;69532;37.974;23.708;2024-02-28T06:06:04;39.05;;;19.25;;
80215;SDS011;69532;37.974;23.708;2024-02-28T06:08:32;42.20;;;20.25;;
80215;SDS011;69532;37.974;23.708;2024-02-28T06:10:59;37.20;;;20.50;;
80215;SDS011;69532;37.974;23.708;2024-02-28T06:13:26;38.85;;;20.08;;
80215;SDS011;69532;37.974;23.708;2024-02-28T06:15:54;30.02;;;18.52;;
80215;SDS011;69532;37.974;23.708;2024-02-28T06:18:22;35.22;;;18.00;;
80215;SDS011;69532;37.974;23.708;2024-02-28T06:20:49;35.38;;;18.92;;
80215;SDS011;69532;37.974;23.708;2024-02-28T06:23:15;32.20;;;19.38;;
80215;SDS011;69532;37.974;23.708;2024-02-28T06:25:42;39.03;;;19.55;;
80215;SDS011;69532;37.974;23.708;2024-02-28T06:28:09;28.88;;;17.15;;
80215;SDS011;69532;37.974;23.708;2024-02-28T06:30:35;26.88;;;17.38;;
80215;SDS011;69532;37.974;23.708;2024-02-28T06:33:01;43.55;;;18.80;;
80215;SDS011;69532;37.974;23.708;2024-02-28T06:35:28;25.30;;;16.77;;
80215;SDS011;69532;37.974;23.708;2024-02-28T06:37:54;34.20;;;16.75;;
80215;SDS011;69532;37.974;23.708;2024-02-28T06:40:20;33.65;;;17.00;;
80215;SDS011;69532;37.974;23.708;2024-02-28T06:42:47;33.63;;;17.85;;
80215;SDS011;69532;37.974;23.708;2024-02-28T06:45:13;27.65;;;16.35;;
80215;SDS011;69532;37.974;23.708;2024-02-28T06:47:39;31.30;;;18.05;;
80215;SDS011;69532;37.974;23.708;2024-02-28T06:50:05;36.22;;;18.52;;
80215;SDS011;69532;37.974;23.708;2024-02-28T06:52:33;33.15;;;17.27;;
80215;SDS011;69532;37.974;23.708;2024-02-28T06:55:00;31.85;;;17.13;;
80215;SDS011;69532;37.974;23.708;2024-02-28T06:57:29;29.00;;;15.52;;
80215;SDS011;69532;37.974;23.708;2024-02-28T06:59:55;30.80;;;16.45;;
80215;SDS011;69532;37.974;23.708;2024-02-28T07:02:21;28.35;;;15.07;;
80215;SDS011;69532;37.974;23.708;2024-02-28T07:04:47;33.83;;;18.00;;
80215;SDS011;69532;37.974;23.708;2024-02-28T07:07:13;27.02;;;13.95;;
80215;SDS011;69532;37.974;23.708;2024-02-28T07:09:39;30.00;;;14.65;;
80215;SDS011;69532;37.974;23.708;2024-02-28T07:12:06;31.80;;;14.82;;
80215;SDS011;69532;37.974;23.708;2024-02-28T07:14:32;30.13;;;14.10;;
80215;SDS011;69532;37.974;23.708;2024-02-28T07:16:58;28.67;;;14.95;;
80215;SDS011;69532;37.974;23.708;2024-02-28T07:19:24;33.00;;;14.23;;
80215;SDS011;69532;37.974;23.708;2024-02-28T07:21:50;29.27;;;13.65;;
80215;SDS011;69532;37.974;23.708;2024-02-28T07:24:16;27.35;;;14.95;;
80215;SDS011;69532;37.974;23.708;2024-02-28T07:26:43;32.28;;;15.30;;
80215;SDS011;69532;37.974;23.708;2024-02-28T07:29:09;40.47;;;17.42;;
80215;SDS011;69532;37.974;23.708;2024-02-28T07:31:35;35.28;;;17.70;;
80215;SDS011;69532;37.974;23.708;2024-02-28T07:34:01;32.50;;;16.00;;
80215;SDS011;69532;37.974;23.708;2024-02-28T07:36:27;33.60;;;17.00;;
80215;SDS011;69532;37.974;23.708;2024-02-28T07:38:53;32.10;;;17.98;;
80215;SDS011;69532;37.974;23.708;2024-02-28T07:41:19;30.20;;;17.05;;
80215;SDS011;69532;37.974;23.708;2024-02-28T07:43:45;38.30;;;17.50;;
80215;SDS011;69532;37.974;23.708;2024-02-28T07:46:11;29.52;;;16.08;;
80215;SDS011;69532;37.974;23.708;2024-02-28T07:48:38;30.58;;;15.93;;
80215;SDS011;69532;37.974;23.708;2024-02-28T07:51:05;32.53;;;14.75;;
80215;SDS011;69532;37.974;23.708;2024-02-28T07:53:31;31.50;;;15.20;;
80215;SDS011;69532;37.974;23.708;2024-02-28T07:55:58;35.78;;;16.55;;
80215;SDS011;69532;37.974;23.708;2024-02-28T07:58:24;38.15;;;17.90;;
80215;SDS011;69532;37.974;23.708;2024-02-28T08:00:50;32.22;;;14.95;;
80215;SDS011;69532;37.974;23.708;2024-02-28T08:03:19;31.98;;;14.90;;
80215;SDS011;69532;37.974;23.708;2024-02-28T08:05:46;27.48;;;14.93;;
80215;SDS011;69532;37.974;23.708;2024-02-28T08:08:14;31.25;;;15.32;;
80215;SDS011;69532;37.974;23.708;2024-02-28T08:10:40;28.48;;;14.05;;
80215;SDS011;69532;37.974;23.708;2024-02-28T08:13:06;32.20;;;14.43;;
80215;SDS011;69532;37.974;23.708;2024-02-28T08:15:33;31.80;;;15.13;;
80215;SDS011;69532;37.974;23.708;2024-02-28T08:17:59;31.02;;;14.70;;
80215;SDS011;69532;37.974;23.708;2024-02-28T08:20:25;28.13;;;15.80;;
80215;SDS011;69532;37.974;23.708;2024-02-28T08:22:52;34.17;;;15.70;;
80215;SDS011;69532;37.974;23.708;2024-02-28T08:25:18;31.55;;;14.80;;
80215;SDS011;69532;37.974;23.708;2024-02-28T08:27:45;34.10;;;16.02;;
80215;SDS011;69532;37.974;23.708;2024-02-28T08:30:11;33.10;;;16.13;;
80215;SDS011;69532;37.974;23.708;2024-02-28T08:32:38;26.65;;;14.85;;
80215;SDS011;69532;37.974;23.708;2024-02-28T08:35:04;32.40;;;16.70;;
80215;SDS011;69532;37.974;23.708;2024-02-28T08:37:33;36.25;;;17.55;;
80215;SDS011;69532;37.974;23.708;2024-02-28T08:39:59;33.70;;;15.73;;
80215;SDS011;69532;37.974;23.708;2024-02-28T08:42:26;32.63;;;15.63;;
80215;SDS011;69532;37.974;23.708;2024-02-28T08:44:52;36.22;;;15.65;;
80215;SDS011;69532;37.974;23.708;2024-02-28T08:47:26;28.63;;;17.02;;
80215;SDS011;69532;37.974;23.708;2024-02-28T08:49:52;32.17;;;14.88;;
80215;SDS011;69532;37.974;23.708;2024-02-28T08:52:19;34.83;;;16.15;;
80215;SDS011;69532;37.974;23.708;2024-02-28T08:54:47;30.55;;;15.20;;
80215;SDS011;69532;37.974;23.708;2024-02-28T08:57:14;28.60;;;16.00;;
80215;SDS011;69532;37.974;23.708;2024-02-28T08:59:41;36.30;;;17.60;;
80215;SDS011;69532;37.974;23.708;2024-02-28T09:02:07;37.38;;;17.25;;
80215;SDS011;69532;37.974;23.708;2024-02-28T09:04:34;32.72;;;17.05;;
80215;SDS011;69532;37.974;23.708;2024-02-28T09:07:00;29.75;;;16.05;;
80215;SDS011;69532;37.974;23.708;2024-02-28T09:09:26;28.55;;;16.42;;
80215;SDS011;69532;37.974;23.708;2024-02-28T09:11:55;30.40;;;15.32;;
80215;SDS011;69532;37.974;23.708;2024-02-28T09:14:21;32.90;;;17.25;;
80215;SDS011;69532;37.974;23.708;2024-02-28T09:16:47;35.80;;;17.73;;
80215;SDS011;69532;37.974;23.708;2024-02-28T09:19:13;32.50;;;16.27;;
80215;SDS011;69532;37.974;23.708;2024-02-28T09:21:40;33.95;;;17.75;;
80215;SDS011;69532;37.974;23.708;2024-02-28T09:24:06;31.80;;;17.15;;
80215;SDS011;69532;37.974;23.708;2024-02-28T09:26:32;30.90;;;16.92;;
80215;SDS011;69532;37.974;23.708;2024-02-28T09:28:58;31.35;;;17.25;;
80215;SDS011;69532;37.974;23.708;2024-02-28T09:31:24;31.83;;;17.42;;
80215;SDS011;69532;37.974;23.708;2024-02-28T09:33:50;30.17;;;17.55;;
80215;SDS011;69532;37.974;23.708;2024-02-28T09:36:16;34.08;;;18.52;;
80215;SDS011;69532;37.974;23.708;2024-02-28T09:38:42;35.63;;;17.98;;
80215;SDS011;69532;37.974;23.708;2024-02-28T09:41:14;31.92;;;15.75;;
80215;SDS011;69532;37.974;23.708;2024-02-28T09:43:41;33.08;;;14.68;;
80215;SDS011;69532;37.974;23.708;2024-02-28T09:46:08;31.25;;;16.83;;
80215;SDS011;69532;37.974;23.708;2024-02-28T09:48:38;30.92;;;15.63;;
80215;SDS011;69532;37.974;23.708;2024-02-28T09:51:06;30.40;;;14.40;;
80215;SDS011;69532;37.974;23.708;2024-02-28T09:53:35;25.80;;;13.75;;
80215;SDS011;69532;37.974;23.708;2024-02-28T09:56:02;29.23;;;15.10;;
80215;SDS011;69532;37.974;23.708;2024-02-28T09:58:29;30.05;;;16.25;;
80215;SDS011;69532;37.974;23.708;2024-02-28T10:00:57;25.30;;;13.98;;
80215;SDS011;69532;37.974;23.708;2024-02-28T10:03:28;27.77;;;15.02;;
80215;SDS011;69532;37.974;23.708;2024-02-28T10:05:56;29.27;;;15.43;;
80215;SDS011;69532;37.974;23.708;2024-02-28T10:08:22;28.77;;;15.48;;
80215;SDS011;69532;37.974;23.708;2024-02-28T10:10:48;30.15;;;15.38;;
80215;SDS011;69532;37.974;23.708;2024-02-28T10:13:19;27.73;;;14.88;;
80215;SDS011;69532;37.974;23.708;2024-02-28T10:15:47;30.08;;;15.02;;
80215;SDS011;69532;37.974;23.708;2024-02-28T10:18:14;30.33;;;14.00;;
80215;SDS011;69532;37.974;23.708;2024-02-28T10:20:40;27.77;;;13.75;;
80215;SDS011;69532;37.974;23.708;2024-02-28T10:23:07;23.67;;;13.55;;
80215;SDS011;69532;37.974;23.708;2024-02-28T10:25:44;23.92;;;13.20;;
80215;SDS011;69532;37.974;23.708;2024-02-28T10:28:11;30.60;;;13.70;;
80215;SDS011;69532;37.974;23.708;2024-02-28T10:30:43;26.15;;;14.40;;
80215;SDS011;69532;37.974;23.708;2024-02-28T10:33:13;24.15;;;12.98;;
80215;SDS011;69532;37.974;23.708;2024-02-28T10:35:40;26.70;;;13.55;;
80215;SDS011;69532;37.974;23.708;2024-02-28T10:38:11;21.50;;;13.15;;
80215;SDS011;69532;37.974;23.708;2024-02-28T10:40:41;29.30;;;15.13;;
80215;SDS011;69532;37.974;23.708;2024-02-28T10:43:07;28.27;;;13.48;;
80215;SDS011;69532;37.974;23.708;2024-02-28T10:45:35;26.92;;;13.48;;
80215;SDS011;69532;37.974;23.708;2024-02-28T10:48:05;26.25;;;13.75;;
80215;SDS011;69532;37.974;23.708;2024-02-28T10:50:32;25.50;;;13.82;;
80215;SDS011;69532;37.974;23.708;2024-02-28T10:53:02;25.23;;;12.75;;
80215;SDS011;69532;37.974;23.708;2024-02-28T10:55:32;25.63;;;13.07;;
80215;SDS011;69532;37.974;23.708;2024-02-28T10:58:06;22.90;;;13.32;;
80215;SDS011;69532;37.974;23.708;2024-02-28T11:00:36;26.15;;;13.05;;
80215;SDS011;69532;37.974;23.708;2024-02-28T11:03:04;29.58;;;16.15;;
80215;SDS011;69532;37.974;23.708;2024-02-28T11:05:40;26.20;;;13.05;;
80215;SDS011;69532;37.974;23.708;2024-02-28T11:08:10;22.83;;;12.63;;
80215;SDS011;69532;37.974;23.708;2024-02-28T11:10:45;23.98;;;12.32;;
80215;SDS011;69532;37.974;23.708;2024-02-28T11:13:23;20.35;;;13.57;;
80215;SDS011;69532;37.974;23.708;2024-02-28T11:15:54;23.88;;;11.60;;
80215;SDS011;69532;37.974;23.708;2024-02-28T11:18:23;20.15;;;11.43;;
80215;SDS011;69532;37.974;23.708;2024-02-28T11:20:49;23.00;;;12.60;;
80215;SDS011;69532;37.974;23.708;2024-02-28T11:23:19;21.58;;;11.07;;
80215;SDS011;69532;37.974;23.708;2024-02-28T11:25:45;23.92;;;11.85;;
80215;SDS011;69532;37.974;23.708;2024-02-28T11:28:11;24.27;;;12.13;;
80215;SDS011;69532;37.974;23.708;2024-02-28T11:30:37;23.85;;;11.25;;
80215;SDS011;69532;37.974;23.708;2024-02-28T11:33:03;23.38;;;12.23;;
80215;SDS011;69532;37.974;23.708;2024-02-28T11:35:30;24.55;;;13.40;;
80215;SDS011;69532;37.974;23.708;2024-02-28T11:37:57;20.58;;;12.10;;
80215;SDS011;69532;37.974;23.708;2024-02-28T11:40:23;18.73;;;11.63;;
80215;SDS011;69532;37.974;23.708;2024-02-28T11:42:53;25.80;;;11.82;;
80215;SDS011;69532;37.974;23.708;2024-02-28T11:45:20;18.55;;;11.70;;
80215;SDS011;69532;37.974;23.708;2024-02-28T11:47:46;21.73;;;14.05;;
80215;SDS011;69532;37.974;23.708;2024-02-28T11:50:13;19.33;;;11.68;;
80215;SDS011;69532;37.974;23.708;2024-02-28T11:52:44;18.23;;;11.13;;
80215;SDS011;69532;37.974;23.708;2024-02-28T11:55:11;19.48;;;10.68;;
80215;SDS011;69532;37.974;23.708;2024-02-28T11:57:37;18.15;;;10.18;;
80215;SDS011;69532;37.974;23.708;2024-02-28T12:00:05;19.08;;;10.27;;
80215;SDS011;69532;37.974;23.708;2024-02-28T12:02:33;18.15;;;10.43;;
80215;SDS011;69532;37.974;23.708;2024-02-28T12:05:02;21.13;;;11.77;;
80215;SDS011;69532;37.974;23.708;2024-02-28T12:07:30;19.52;;;11.05;;
80215;SDS011;69532;37.974;23.708;2024-02-28T12:09:56;15.50;;;9.07;;
80215;SDS011;69532;37.974;23.708;2024-02-28T12:12:29;18.63;;;10.38;;
80215;SDS011;69532;37.974;23.708;2024-02-28T12:14:58;16.27;;;10.07;;
80215;SDS011;69532;37.974;23.708;2024-02-28T12:17:25;18.38;;;11.10;;
80215;SDS011;69532;37.974;23.708;2024-02-28T12:19:52;16.35;;;9.95;;
80215;SDS011;69532;37.974;23.708;2024-02-28T12:22:18;14.98;;;9.73;;
80215;SDS011;69532;37.974;23.708;2024-02-28T12:24:45;15.57;;;10.50;;
80215;SDS011;69532;37.974;23.708;2024-02-28T12:27:11;17.85;;;11.02;;
80215;SDS011;69532;37.974;23.708;2024-02-28T12:29:37;19.67;;;13.27;;
80215;SDS011;69532;37.974;23.708;2024-02-28T12:32:03;20.60;;;11.10;;
80215;SDS011;69532;37.974;23.708;2024-02-28T12:34:30;19.45;;;12.05;;
80215;SDS011;69532;37.974;23.708;2024-02-28T12:36:56;19.02;;;10.63;;
80215;SDS011;69532;37.974;23.708;2024-02-28T12:39:22;19.77;;;11.48;;
80215;SDS011;69532;37.974;23.708;2024-02-28T12:41:49;19.67;;;10.93;;
80215;SDS011;69532;37.974;23.708;2024-02-28T12:44:15;22.20;;;11.40;;
80215;SDS011;69532;37.974;23.708;2024-02-28T12:46:41;17.83;;;10.93;;
80215;SDS011;69532;37.974;23.708;2024-02-28T12:49:07;17.23;;;12.10;;
80215;SDS011;69532;37.974;23.708;2024-02-28T12:51:36;17.55;;;11.18;;
80215;SDS011;69532;37.974;23.708;2024-02-28T12:54:02;18.83;;;10.95;;
80215;SDS011;69532;37.974;23.708;2024-02-28T12:56:29;15.75;;;10.07;;
80215;SDS011;69532;37.974;23.708;2024-02-28T12:58:55;17.42;;;11.00;;
80215;SDS011;69532;37.974;23.708;2024-02-28T13:01:21;18.35;;;11.82;;
80215;SDS011;69532;37.974;23.708;2024-02-28T13:03:47;20.17;;;10.90;;
80215;SDS011;69532;37.974;23.708;2024-02-28T13:06:14;20.83;;;11.93;;
80215;SDS011;69532;37.974;23.708;2024-02-28T13:08:40;21.23;;;11.50;;
80215;SDS011;69532;37.974;23.708;2024-02-28T13:11:06;17.63;;;9.60;;
80215;SDS011;69532;37.974;23.708;2024-02-28T13:13:33;21.65;;;11.43;;
80215;SDS011;69532;37.974;23.708;2024-02-28T13:15:59;19.92;;;11.32;;
80215;SDS011;69532;37.974;23.708;2024-02-28T13:18:25;19.73;;;12.10;;
80215;SDS011;69532;37.974;23.708;2024-02-28T13:20:52;17.48;;;10.85;;
80215;SDS011;69532;37.974;23.708;2024-02-28T13:23:18;24.27;;;12.48;;
80215;SDS011;69532;37.974;23.708;2024-02-28T13:25:44;21.52;;;12.23;;
80215;SDS011;69532;37.974;23.708;2024-02-28T13:28:10;23.13;;;11.77;;
80215;SDS011;69532;37.974;23.708;2024-02-28T13:30:36;22.25;;;12.57;;
80215;SDS011;69532;37.974;23.708;2024-02-28T13:33:03;18.48;;;12.30;;
80215;SDS011;69532;37.974;23.708;2024-02-28T13:35:29;24.00;;;11.57;;
80215;SDS011;69532;37.974;23.708;2024-02-28T13:37:56;17.58;;;11.05;;
80215;SDS011;69532;37.974;23.708;2024-02-28T13:40:28;18.90;;;11.80;;
80215;SDS011;69532;37.974;23.708;2024-02-28T13:42:54;21.80;;;11.48;;
80215;SDS011;69532;37.974;23.708;2024-02-28T13:45:20;18.27;;;11.00;;
80215;SDS011;69532;37.974;23.708;2024-02-28T13:47:46;16.92;;;10.77;;
80215;SDS011;69532;37.974;23.708;2024-02-28T13:50:12;18.23;;;11.38;;
80215;SDS011;69532;37.974;23.708;2024-02-28T13:52:39;20.83;;;12.20;;
80215;SDS011;69532;37.974;23.708;2024-02-28T13:55:06;19.73;;;10.75;;
80215;SDS011;69532;37.974;23.708;2024-02-28T13:57:34;23.45;;;12.73;;
80215;SDS011;69532;37.974;23.708;2024-02-28T14:00:00;22.60;;;11.90;;
80215;SDS011;69532;37.974;23.708;2024-02-28T14:02:27;21.33;;;12.45;;
80215;SDS011;69532;37.974;23.708;2024-02-28T14:04:53;21.15;;;11.70;;
80215;SDS011;69532;37.974;23.708;2024-02-28T14:07:20;22.85;;;13.27;;
80215;SDS011;69532;37.974;23.708;2024-02-28T14:09:46;21.63;;;11.98;;
80215;SDS011;69532;37.974;23.708;2024-02-28T14:12:12;20.88;;;11.43;;